Time;durP1;ratioP1;P1;durP2;ratioP2;P2;SDS_P1;SDS_P2;PMS_P1;PMS_P2;Temp;Humidity;BMP_temperature;BMP_pressure;BME280_temperature;BME280_humidity;BME280_pressure;Samples;Min_cycle;Max_cycle;Signal;HPM_P1;HPM_P2
2022/02/11 00:02:17;;;;;;;1.33;0.90;;;;;;;3.20;100.00;100969.47;5072746;28;20567;-73
2022/02/11 00:07:33;;;;;;;3.23;1.37;;;;;;;3.17;100.00;100968.06;5073393;28;20189;-73
2022/02/11 00:09:58;;;;;;;1.50;1.10;;;;;;;3.18;100.00;100949.97;5073227;28;20391;-73
2022/02/11 00:12:24;;;;;;;0.20;0.20;;;;;;;3.19;100.00;100965.94;5073374;28;20572;-72
2022/02/11 00:17:47;;;;;;;4.10;1.03;;;;;;;3.18;100.00;100958.91;5071461;28;20395;-71
2022/02/11 00:20:13;;;;;;;0.60;0.57;;;;;;;3.17;100.00;100953.75;5072962;28;20171;-71
2022/02/11 00:22:38;;;;;;;0.40;0.40;;;;;;;3.18;100.00;100958.06;5071489;28;20182;-71
2022/02/11 00:25:04;;;;;;;0.47;0.47;;;;;;;3.15;100.00;100959.38;5072325;28;20169;-70
2022/02/11 00:32:44;;;;;;;11.33;1.20;;;;;;;3.15;100.00;100956.69;5072159;28;20189;-72
2022/02/11 00:35:34;;;;;;;1.70;1.60;;;;;;;3.16;100.00;100955.63;5071967;28;20216;-72
2022/02/11 00:38:05;;;;;;;2.07;1.87;;;;;;;3.16;100.00;100952.09;5072061;28;20270;-74
2022/02/11 00:45:42;;;;;;;2.77;1.30;;;;;;;3.20;100.00;100958.66;5071832;28;20210;-71
2022/02/11 01:04:32;;;;;;;1.67;1.20;;;;;;;3.29;100.00;100936.34;5071645;28;20651;-74
2022/02/11 01:06:57;;;;;;;2.27;2.07;;;;;;;3.29;100.00;100947.16;5071235;28;20274;-74
2022/02/11 01:09:22;;;;;;;2.73;1.93;;;;;;;3.29;100.00;100947.16;5071563;28;20201;-74
2022/02/11 01:14:13;;;;;;;2.60;2.40;;;;;;;3.32;100.00;100943.13;5071395;28;20512;-71
2022/02/11 01:16:44;;;;;;;0.40;0.40;;;;;;;3.31;100.00;100949.59;5071016;28;20206;-71
2022/02/11 01:22:10;;;;;;;4.80;2.70;;;;;;;3.34;100.00;100946.44;5071190;28;20228;-72
2022/02/11 01:30:10;;;;;;;1.57;1.47;;;;;;;3.30;100.00;100939.88;5071167;28;20533;-71
2022/02/11 01:35:13;;;;;;;3.03;2.83;;;;;;;3.29;100.00;100938.25;5070767;28;20518;-71
2022/02/11 01:38:30;;;;;;;6.30;3.07;;;;;;;3.27;100.00;100943.09;5070708;28;20198;-71
2022/02/11 01:46:41;;;;;;;3.53;1.60;;;;;;;3.22;100.00;100926.81;5069224;28;20194;-71
2022/02/11 01:49:32;;;;;;;1.27;1.17;;;;;;;3.23;100.00;100929.28;5070605;28;20567;-72
2022/02/11 01:57:09;;;;;;;1.27;1.17;;;;;;;3.27;100.00;100934.97;5070542;28;20212;-71
2022/02/11 02:05:42;;;;;;;1.43;1.33;;;;;;;3.29;100.00;100928.25;5070665;28;20307;-72
2022/02/11 02:58:24;;;;;;;4.13;2.60;;;;;;;3.01;100.00;100879.84;5070569;28;20166;-71
2022/02/11 03:49:28;;;;;;;4.83;4.33;;;;;;;2.09;100.00;100854.25;5073188;28;20411;-73
2022/02/11 04:08:40;;;;;;;0.50;0.50;;;;;;;1.49;100.00;100854.84;5073851;28;20415;-73
2022/02/11 04:22:32;;;;;;;3.17;1.73;;;;;;;1.37;100.00;100848.69;5073104;28;20412;-74
2022/02/11 05:00:11;;;;;;;5.43;5.03;;;;;;;1.78;100.00;100844.03;5072169;28;20388;-74
2022/02/11 05:02:38;;;;;;;9.40;7.87;;;;;;;1.84;100.00;100842.25;5070483;28;20513;-74
2022/02/11 05:05:06;;;;;;;4.67;3.03;;;;;;;1.87;100.00;100839.06;5071817;28;20626;-74
2022/02/11 05:07:33;;;;;;;9.10;8.20;;;;;;;1.89;100.00;100829.69;5072521;28;20413;-73
2022/02/11 05:09:59;;;;;;;6.30;5.80;;;;;;;1.92;100.00;100836.47;5071985;28;20204;-73
2022/02/11 05:12:24;;;;;;;10.80;7.33;;;;;;;1.90;100.00;100825.13;5072057;28;20167;-73
2022/02/11 05:14:50;;;;;;;5.87;1.53;;;;;;;1.88;100.00;100811.91;5071600;28;20167;-70
2022/02/11 05:17:15;;;;;;;3.50;2.73;;;;;;;1.91;100.00;100824.88;5071755;28;20213;-74
2022/02/11 05:19:40;;;;;;;6.93;3.83;;;;;;;1.92;100.00;100820.28;5071748;28;20181;-73
2022/02/11 05:22:06;;;;;;;4.43;4.00;;;;;;;1.93;100.00;100820.03;5071482;28;20193;-73
2022/02/11 05:24:31;;;;;;;2.63;2.43;;;;;;;1.92;100.00;100806.81;5071665;28;20574;-73
2022/02/11 05:26:56;;;;;;;0.73;0.63;;;;;;;1.95;100.00;100823.31;5071369;28;20189;-73
2022/02/11 05:29:22;;;;;;;3.07;2.87;;;;;;;1.96;100.00;100816.03;5071422;28;20193;-73
2022/02/11 05:31:47;;;;;;;2.13;1.97;;;;;;;1.95;100.00;100823.31;5071384;28;20167;-73
2022/02/11 05:34:12;;;;;;;1.60;1.50;;;;;;;1.96;100.00;100819.56;5071418;28;20177;-73
2022/02/11 05:36:38;;;;;;;3.77;3.47;;;;;;;2.00;100.00;100825.25;5071166;28;20226;-73
2022/02/11 05:39:03;;;;;;;2.50;2.13;;;;;;;2.01;100.00;100822.31;5069921;28;20174;-73
2022/02/11 05:41:28;;;;;;;5.23;4.73;;;;;;;2.04;100.00;100821.03;5071301;28;20186;-73
2022/02/11 05:43:54;;;;;;;1.73;1.63;;;;;;;2.06;100.00;100829.69;5071248;28;20558;-73
2022/02/11 05:46:20;;;;;;;2.60;2.43;;;;;;;2.06;100.00;100825.09;5071139;28;20549;-73
2022/02/11 05:48:46;;;;;;;3.93;3.60;;;;;;;2.12;100.00;100817.09;5071348;28;20209;-73
2022/02/11 05:51:11;;;;;;;18.83;2.53;;;;;;;2.15;100.00;100812.03;5071238;28;20480;-74
2022/02/11 05:53:37;;;;;;;3.60;3.10;;;;;;;2.19;100.00;100815.88;5071262;28;20198;-73
2022/02/11 05:56:03;;;;;;;5.17;2.93;;;;;;;2.22;100.00;100817.25;5071140;28;20576;-71
2022/02/11 05:58:28;;;;;;;1.03;0.57;;;;;;;2.26;100.00;100819.19;5070690;28;20182;-71
2022/02/11 06:00:54;;;;;;;15.80;3.50;;;;;;;2.30;100.00;100814.94;5071254;28;20630;-71
2022/02/11 06:03:19;;;;;;;2.00;1.90;;;;;;;2.37;100.00;100812.09;5071307;28;20256;-70
2022/02/11 06:05:45;;;;;;;1.40;1.30;;;;;;;2.44;100.00;100809.19;5071051;28;20247;-74
2022/02/11 06:08:11;;;;;;;11.63;6.77;;;;;;;2.47;100.00;100804.16;5071311;28;20174;-71
2022/02/11 06:10:37;;;;;;;2.10;2.00;;;;;;;2.52;100.00;100809.59;5071430;28;20686;-72
2022/02/11 06:13:02;;;;;;;4.30;3.90;;;;;;;2.55;100.00;100816.38;5071078;28;20304;-74
2022/02/11 06:15:28;;;;;;;5.90;4.77;;;;;;;2.56;100.00;100809.91;5070918;28;20213;-74
2022/02/11 06:17:53;;;;;;;1.97;1.67;;;;;;;2.57;100.00;100798.88;5070920;28;20202;-74
2022/02/11 06:20:23;;;;;;;7.30;3.80;;;;;;;2.59;100.00;100798.63;5071284;28;20178;-71
2022/02/11 06:22:48;;;;;;;3.77;3.43;;;;;;;2.59;100.00;100793.22;5071026;28;20202;-70
2022/02/11 06:25:15;;;;;;;4.40;2.97;;;;;;;2.57;100.00;100793.47;5070777;28;20248;-70
2022/02/11 06:27:41;;;;;;;2.90;2.70;;;;;;;2.56;100.00;100786.47;5070926;28;20526;-74
2022/02/11 06:30:07;;;;;;;4.13;3.83;;;;;;;2.57;100.00;100792.66;5070952;28;20240;-72
2022/02/11 06:32:32;;;;;;;2.67;1.73;;;;;;;2.62;100.00;100808.94;5070882;28;20181;-73
2022/02/11 06:34:57;;;;;;;11.47;7.73;;;;;;;2.64;100.00;100810.31;5070715;28;20178;-71
2022/02/11 06:37:24;;;;;;;6.17;5.57;;;;;;;2.67;100.00;100800.91;5070810;28;20600;-72
2022/02/11 06:39:49;;;;;;;11.47;3.50;;;;;;;2.65;100.00;100800.34;5069519;28;20625;-71
2022/02/11 06:42:14;;;;;;;2.63;2.47;;;;;;;2.68;100.00;100810.63;5070924;28;20170;-71
2022/02/11 06:44:40;;;;;;;4.70;4.10;;;;;;;2.74;100.00;100820.41;5070785;28;20198;-71
2022/02/11 06:47:05;;;;;;;2.80;2.57;;;;;;;2.80;100.00;100811.31;5070646;28;20179;-71
2022/02/11 06:49:31;;;;;;;1.00;1.00;;;;;;;2.80;100.00;100808.63;5070950;28;20171;-71
2022/02/11 06:51:57;;;;;;;2.03;1.93;;;;;;;2.80;100.00;100821.31;5070676;28;20170;-74
2022/02/11 06:54:23;;;;;;;7.33;4.10;;;;;;;2.83;100.00;100826.19;5071074;28;20175;-73
2022/02/11 06:56:48;;;;;;;4.77;3.50;;;;;;;2.79;100.00;100822.38;5070626;28;20260;-73
2022/02/11 06:59:14;;;;;;;5.20;4.80;;;;;;;2.79;100.00;100822.38;5070756;28;20183;-73
2022/02/11 07:01:39;;;;;;;4.47;4.17;;;;;;;2.76;100.00;100815.59;5070643;28;20171;-72
2022/02/11 07:04:04;;;;;;;4.67;4.27;;;;;;;2.76;100.00;100842.56;5070901;28;20175;-74
2022/02/11 07:06:30;;;;;;;2.63;2.43;;;;;;;2.77;100.00;100833.41;5070654;28;20206;-74
2022/02/11 07:08:55;;;;;;;9.97;4.93;;;;;;;2.82;100.00;100838.88;5070586;28;20171;-73
2022/02/11 07:11:21;;;;;;;13.70;4.13;;;;;;;2.83;100.00;100845.06;5072741;28;20622;-73
2022/02/11 07:13:46;;;;;;;4.07;3.33;;;;;;;2.81;100.00;100839.94;5074287;28;20174;-73
2022/02/11 07:16:15;;;;;;;5.47;2.80;;;;;;;2.80;100.00;100846.41;5074093;28;20236;-74
2022/02/11 07:18:41;;;;;;;8.33;5.63;;;;;;;2.75;100.00;100840.94;5074332;28;20500;-74
2022/02/11 07:21:06;;;;;;;2.83;2.63;;;;;;;2.74;100.00;100843.88;5074097;28;20171;-74
2022/02/11 07:23:31;;;;;;;3.13;2.87;;;;;;;2.75;100.00;100848.19;5074119;28;20261;-73
2022/02/11 07:25:57;;;;;;;5.67;4.27;;;;;;;2.75;100.00;100845.50;5074054;28;20197;-73
2022/02/11 07:28:24;;;;;;;2.07;1.97;;;;;;;2.76;100.00;100841.75;5074086;28;20175;-74
2022/02/11 07:30:51;;;;;;;3.20;2.57;;;;;;;2.74;100.00;100846.56;5073838;28;20179;-73
2022/02/11 07:33:17;;;;;;;3.80;2.90;;;;;;;2.73;100.00;100845.75;5074072;28;20417;-71
2022/02/11 07:35:42;;;;;;;1.90;1.77;;;;;;;2.71;100.00;100852.47;5073762;28;20210;-73
2022/02/11 07:38:08;;;;;;;5.70;2.50;;;;;;;2.71;100.00;100847.06;5073931;28;20206;-74
2022/02/11 07:40:33;;;;;;;2.73;2.53;;;;;;;2.73;100.00;100848.44;5073869;28;20209;-75
2022/02/11 07:42:58;;;;;;;5.73;2.73;;;;;;;2.74;100.00;100849.25;5073873;28;20583;-72
2022/02/11 07:45:27;;;;;;;3.53;3.07;;;;;;;2.76;100.00;100844.47;5072137;28;20182;-74
2022/02/11 07:47:53;;;;;;;2.60;2.40;;;;;;;2.83;100.00;100855.88;5073415;28;20171;-73
2022/02/11 07:50:19;;;;;;;5.90;2.37;;;;;;;2.90;100.00;100854.63;5073470;28;20175;-75
2022/02/11 07:52:44;;;;;;;2.00;1.90;;;;;;;2.99;100.00;100861.19;5073427;28;20171;-74
2022/02/11 07:55:10;;;;;;;6.23;3.27;;;;;;;3.02;100.00;100864.47;5070783;28;20213;-73
2022/02/11 07:57:35;;;;;;;4.87;3.77;;;;;;;3.02;100.00;100865.28;5073031;28;20563;-74
2022/02/11 08:00:04;;;;;;;1.10;1.10;;;;;;;3.05;100.00;100864.00;5073206;28;20261;-74
2022/02/11 08:02:36;;;;;;;2.70;2.50;;;;;;;3.03;100.00;100866.09;5071754;28;20174;-73
2022/02/11 08:05:05;;;;;;;4.37;3.97;;;;;;;3.02;100.00;100865.28;5071871;28;20162;-74
2022/02/11 08:07:30;;;;;;;1.27;1.27;;;;;;;3.01;100.00;100879.03;5073190;28;20588;-74
2022/02/11 08:09:55;;;;;;;2.33;2.13;;;;;;;2.98;100.00;100878.47;5072982;28;20224;-75
2022/02/11 08:12:21;;;;;;;3.07;1.73;;;;;;;2.97;100.00;100874.13;5073042;28;20170;-74
2022/02/11 08:14:46;;;;;;;2.17;1.97;;;;;;;2.99;100.00;100882.78;5072861;28;20163;-74
2022/02/11 08:17:12;;;;;;;1.73;1.53;;;;;;;3.07;100.00;100883.44;5072876;28;20243;-73
2022/02/11 08:19:37;;;;;;;1.70;1.60;;;;;;;3.11;100.00;100887.25;5073384;28;20684;-72
2022/02/11 08:22:03;;;;;;;1.77;1.67;;;;;;;3.14;100.00;100873.25;5072351;28;20170;-74
2022/02/11 08:24:28;;;;;;;4.03;1.80;;;;;;;3.20;100.00;100883.88;5072967;28;20193;-75
2022/02/11 08:26:54;;;;;;;4.80;3.17;;;;;;;3.27;100.00;100891.78;5072531;28;20808;-74
2022/02/11 08:29:24;;;;;;;1.53;1.43;;;;;;;3.35;100.00;100904.03;5072663;28;20649;-74
2022/02/11 08:31:50;;;;;;;5.03;1.73;;;;;;;3.36;100.00;100908.38;5072816;28;20166;-74
2022/02/11 08:34:15;;;;;;;1.43;1.33;;;;;;;3.35;100.00;100896.75;5071361;28;20174;-73
2022/02/11 08:36:41;;;;;;;2.93;2.33;;;;;;;3.31;100.00;100895.59;5072509;28;20531;-74
2022/02/11 08:39:06;;;;;;;3.40;1.33;;;;;;;3.30;100.00;100891.28;5072599;28;20174;-74
2022/02/11 08:41:31;;;;;;;2.30;2.10;;;;;;;3.32;100.00;100902.63;5069146;28;20179;-73
2022/02/11 08:43:57;;;;;;;2.53;2.37;;;;;;;3.31;100.00;100900.19;5071286;28;20170;-74
2022/02/11 08:46:22;;;;;;;1.40;1.30;;;;;;;3.31;100.00;100902.88;5072278;28;20657;-74
2022/02/11 08:48:48;;;;;;;2.27;1.60;;;;;;;3.30;100.00;100912.88;5072465;28;20179;-74
2022/02/11 08:51:15;;;;;;;1.43;1.33;;;;;;;3.34;100.00;100910.50;5072515;28;20185;-72
2022/02/11 08:53:40;;;;;;;1.43;1.33;;;;;;;3.33;100.00;100903.44;5072381;28;20198;-73
2022/02/11 08:56:08;;;;;;;1.37;1.17;;;;;;;3.36;100.00;100914.59;5072211;28;20198;-71
2022/02/11 08:58:34;;;;;;;3.50;0.90;;;;;;;3.41;100.00;100914.63;5072284;28;20653;-74
2022/02/11 09:00:59;;;;;;;3.50;1.03;;;;;;;3.50;100.00;100912.31;5072185;28;20684;-74
2022/02/11 09:03:25;;;;;;;0.60;0.60;;;;;;;3.58;100.00;100923.47;5072300;28;20253;-74
2022/02/11 09:05:50;;;;;;;1.93;1.83;;;;;;;3.58;100.00;100923.47;5071836;28;20183;-74
2022/02/11 09:08:15;;;;;;;0.77;0.50;;;;;;;3.56;100.00;100925.63;5072168;28;20174;-75
2022/02/11 09:10:41;;;;;;;2.20;1.47;;;;;;;3.52;100.00;100915.56;5070936;28;20171;-73
2022/02/11 09:13:07;;;;;;;5.73;1.13;;;;;;;3.43;100.00;100926.00;5071339;28;20525;-75
2022/02/11 09:15:32;;;;;;;2.37;2.27;;;;;;;3.38;100.00;100925.13;5072716;28;20171;-73
2022/02/11 09:17:58;;;;;;;0.73;0.73;;;;;;;3.40;100.00;100890.59;5071919;28;20248;-72
2022/02/11 09:20:25;;;;;;;2.77;1.43;;;;;;;3.49;100.00;100932.28;5071827;28;20174;-73
2022/02/11 09:22:51;;;;;;;0.93;0.93;;;;;;;3.56;100.00;100914.00;5071390;28;20174;-71
2022/02/11 09:25:17;;;;;;;2.67;1.43;;;;;;;3.66;100.00;100935.72;5071399;28;20199;-74
2022/02/11 09:27:45;;;;;;;0.50;0.50;;;;;;;3.75;100.00;100944.19;5071712;28;20178;-75
2022/02/11 09:30:16;;;;;;;0.77;0.47;;;;;;;3.76;100.00;100902.56;5071727;28;20183;-75
2022/02/11 09:32:43;;;;;;;0.80;0.80;;;;;;;3.69;100.00;100891.16;5071142;28;20175;-75
2022/02/11 09:35:10;;;;;;;1.67;1.17;;;;;;;3.59;100.00;100951.31;5071346;28;20182;-75
2022/02/11 09:37:36;;;;;;;1.43;0.97;;;;;;;3.51;100.00;100944.47;5071342;28;20297;-75
2022/02/11 09:40:07;;;;;;;0.93;0.40;;;;;;;3.42;100.00;100929.75;5071512;28;20184;-74
2022/02/11 09:42:33;;;;;;;0.40;0.30;;;;;;;3.34;100.00;100945.63;5071419;28;20181;-76
2022/02/11 09:44:59;;;;;;;4.60;0.30;;;;;;;3.31;100.00;100919.09;5071974;28;20606;-74
2022/02/11 09:47:26;;;;;;;0.50;0.40;;;;;;;3.26;100.00;100933.34;5071754;28;20185;-71
2022/02/11 09:49:51;;;;;;;0.87;0.37;;;;;;;3.29;100.00;100967.94;5071964;28;20174;-73
2022/02/11 09:52:18;;;;;;;1.77;0.50;;;;;;;3.27;100.00;100952.00;5073831;28;20181;-72
2022/02/11 09:54:44;;;;;;;0.20;0.20;;;;;;;3.31;100.00;100954.19;5071090;28;20177;-73
2022/02/11 09:57:10;;;;;;;1.33;0.60;;;;;;;3.30;100.00;100964.19;5069291;28;20289;-73
2022/02/11 09:59:37;;;;;;;0.10;0.00;;;;;;;3.36;100.00;100968.59;5070851;28;20220;-73
2022/02/11 10:02:03;;;;;;;1.07;0.63;;;;;;;3.36;100.00;100976.69;5070961;28;20178;-73
2022/02/11 10:04:30;;;;;;;0.57;0.13;;;;;;;3.40;100.00;100985.09;5070737;28;20258;-72
2022/02/11 10:06:57;;;;;;;0.20;0.20;;;;;;;3.38;100.00;100985.34;5070870;28;20190;-73
2022/02/11 10:09:23;;;;;;;0.50;0.50;;;;;;;3.37;100.00;100989.13;5071120;28;20185;-73
2022/02/11 10:11:49;;;;;;;0.43;0.43;;;;;;;3.41;100.00;101002.94;5070878;28;20175;-74
2022/02/11 10:14:20;;;;;;;0.07;0.07;;;;;;;3.44;100.00;101002.44;5071060;28;20198;-75
2022/02/11 10:16:54;;;;;;;0.77;0.33;;;;;;;3.52;100.00;101007.41;5070807;28;20210;-74
2022/02/11 10:19:36;;;;;;;0.30;0.30;;;;;;;3.56;100.00;101020.16;5070491;28;20190;-74
2022/02/11 10:22:14;;;;;;;0.10;0.10;;;;;;;3.59;100.00;101025.06;5070575;28;20652;-75
2022/02/11 10:24:41;;;;;;;0.07;0.07;;;;;;;3.63;100.00;101016.47;5070820;28;20205;-75
2022/02/11 10:27:16;;;;;;;4.37;0.60;;;;;;;3.64;100.00;101039.72;5069711;28;20653;-75
2022/02/11 10:29:42;;;;;;;0.10;0.10;;;;;;;3.65;100.00;101041.34;5070734;28;20181;-75
2022/02/11 10:32:07;;;;;;;0.33;0.20;;;;;;;3.65;100.00;101036.75;5071129;28;20179;-75
2022/02/11 10:34:33;;;;;;;0.20;0.20;;;;;;;3.70;100.00;101054.91;5070625;28;20760;-75
2022/02/11 10:37:06;;;;;;;0.10;0.10;;;;;;;3.67;100.00;101041.91;5070370;28;20708;-75
2022/02/11 10:39:34;;;;;;;0.10;0.10;;;;;;;3.65;100.00;101052.16;5070161;28;20196;-74
2022/02/11 10:42:08;;;;;;;0.00;0.00;;;;;;;3.66;100.00;101065.41;5070242;28;20170;-75
2022/02/11 10:44:37;;;;;;;0.10;0.10;;;;;;;3.64;100.00;101069.44;5071427;28;20174;-74
2022/02/11 10:47:09;;;;;;;0.30;0.20;;;;;;;3.68;100.00;101079.50;5074178;28;20170;-75
2022/02/11 10:49:37;;;;;;;2.80;0.50;;;;;;;3.69;100.00;101078.41;5074276;28;20185;-74
2022/02/11 10:52:12;;;;;;;0.20;0.20;;;;;;;3.74;100.00;101085.78;5074113;28;20175;-74
2022/02/11 10:54:39;;;;;;;0.20;0.20;;;;;;;3.77;100.00;101069.06;5074366;28;20176;-72
2022/02/11 10:57:09;;;;;;;0.60;0.20;;;;;;;3.79;100.00;101081.25;5070500;28;20301;-77
2022/02/11 10:59:36;;;;;;;0.10;0.10;;;;;;;3.77;100.00;101096.91;5074180;28;20175;-76
2022/02/11 11:02:10;;;;;;;0.00;0.00;;;;;;;3.80;100.00;101098.28;5074626;28;20506;-80
2022/02/11 11:04:36;;;;;;;5.13;0.97;;;;;;;3.79;100.00;101096.66;5073966;28;20182;-78
2022/02/11 11:07:06;;;;;;;0.13;0.10;;;;;;;3.83;100.00;101097.78;5074092;28;20309;-81
2022/02/11 11:09:34;;;;;;;0.00;0.00;;;;;;;3.92;100.00;101122.50;5074361;28;20175;-78
2022/02/11 11:12:00;;;;;;;0.33;0.33;;;;;;;3.99;100.00;101102.31;5074028;28;20181;-76
2022/02/11 11:14:28;;;;;;;0.00;0.00;;;;;;;4.06;100.00;101116.47;5074265;28;20175;-74
2022/02/11 11:16:55;;;;;;;3.90;0.70;;;;;;;4.11;100.00;101110.31;5073991;28;20669;-74
2022/02/11 11:19:22;;;;;;;0.40;0.40;;;;;;;4.15;100.00;101101.44;5074192;28;20221;-75
2022/02/11 11:22:16;;;;;;;0.10;0.10;;;;;;;4.14;100.00;101116.03;5073310;28;20202;-75
2022/02/11 11:24:48;;;;;;;0.00;0.00;;;;;;;4.14;100.00;101117.91;5073324;28;20174;-73
2022/02/11 11:27:50;;;;;;;0.20;0.20;;;;;;;4.09;100.00;101126.78;5071438;28;20231;-73
2022/02/11 11:30:29;;;;;;;0.13;0.13;;;;;;;4.10;100.00;101141.94;5071028;28;20273;-75
2022/02/11 11:33:15;;;;;;;0.00;0.00;;;;;;;4.09;100.00;101151.13;5070201;28;20843;-77
2022/02/11 11:36:03;;;;;;;0.10;0.10;;;;;;;4.07;100.00;101164.09;5066097;28;20230;-74
2022/02/11 11:38:46;;;;;;;0.00;0.00;;;;;;;4.02;100.00;101155.88;5073619;28;20209;-73
2022/02/11 11:41:22;;;;;;;1.00;1.00;;;;;;;3.99;100.00;101174.50;5073368;28;20872;-74
2022/02/11 11:43:53;;;;;;;16.73;0.30;;;;;;;3.96;100.00;101181.22;5073163;28;20626;-74
2022/02/11 11:46:18;;;;;;;0.00;0.00;;;;;;;3.99;100.00;101174.50;5073045;28;20174;-74
2022/02/11 11:49:00;;;;;;;0.07;0.07;;;;;;;4.00;100.00;101173.44;5073384;28;20232;-73
2022/02/11 11:51:50;;;;;;;0.10;0.10;;;;;;;3.98;100.00;101176.38;5073351;28;20265;-74
2022/02/11 11:54:16;;;;;;;0.27;0.23;;;;;;;4.04;100.00;101197.00;5072765;28;20228;-72
2022/02/11 11:56:53;;;;;;;0.53;0.27;;;;;;;4.10;100.00;101206.84;5072043;28;20210;-77
2022/02/11 11:59:20;;;;;;;0.07;0.00;;;;;;;4.13;100.00;101210.91;5071762;28;20570;-78
2022/02/11 12:02:10;;;;;;;0.00;0.00;;;;;;;4.05;100.00;101217.59;5072996;28;20212;-78
2022/02/11 12:04:41;;;;;;;0.30;0.30;;;;;;;4.03;100.00;101225.09;5072685;28;20202;-76
2022/02/11 12:07:06;;;;;;;0.80;0.80;;;;;;;4.05;100.00;101233.81;5072752;28;20630;-75
2022/02/11 12:09:32;;;;;;;0.17;0.10;;;;;;;3.97;100.00;101234.22;5073253;28;20166;-75
2022/02/11 12:12:02;;;;;;;0.50;0.50;;;;;;;3.98;100.00;101222.34;5072706;28;20175;-75
2022/02/11 12:14:32;;;;;;;3.20;0.30;;;;;;;4.04;100.00;101229.44;5072641;28;20227;-75
2022/02/11 12:17:00;;;;;;;0.10;0.10;;;;;;;4.05;100.00;101231.09;5072429;28;20212;-72
2022/02/11 12:19:26;;;;;;;0.10;0.10;;;;;;;4.11;100.00;101259.03;5072608;28;20539;-72
2022/02/11 12:21:52;;;;;;;0.27;0.27;;;;;;;4.11;100.00;101254.44;5072521;28;20171;-74
2022/02/11 12:27:21;;;;;;;0.20;0.20;;;;;;;4.14;100.00;101264.75;5071651;28;20216;-75
2022/02/11 12:30:05;;;;;;;0.20;0.20;;;;;;;4.15;100.00;101274.50;5072363;28;20228;-74
2022/02/11 12:32:37;;;;;;;2.13;1.53;;;;;;;4.15;100.00;101279.91;5072407;28;20494;-74
2022/02/11 12:35:04;;;;;;;2.30;0.30;;;;;;;4.16;100.00;101289.66;5072009;28;20175;-72
2022/02/11 12:37:31;;;;;;;2.03;0.73;;;;;;;4.17;100.00;101295.88;5072107;28;20206;-72
2022/02/11 12:40:02;;;;;;;0.40;0.40;;;;;;;4.16;100.00;101313.19;5072130;28;20171;-72
2022/02/11 12:42:28;;;;;;;0.70;0.70;;;;;;;4.18;100.00;101324.56;5072088;28;20182;-72
2022/02/11 12:44:53;;;;;;;0.70;0.70;;;;;;;4.16;100.00;101324.81;5071858;28;20170;-74
2022/02/11 12:47:19;;;;;;;2.40;1.47;;;;;;;4.15;100.00;101333.19;5072036;28;20585;-74
2022/02/11 12:49:51;;;;;;;6.33;1.43;;;;;;;4.13;100.00;101338.84;5071901;28;20181;-75
2022/02/11 12:52:24;;;;;;;0.67;0.67;;;;;;;4.14;100.00;101326.94;5071854;28;20217;-74
2022/02/11 12:54:56;;;;;;;1.87;1.30;;;;;;;4.13;100.00;101310.97;5072008;28;20177;-74
2022/02/11 12:57:21;;;;;;;1.60;1.37;;;;;;;4.13;100.00;101344.25;5071621;28;20214;-74
2022/02/11 12:59:50;;;;;;;2.07;1.87;;;;;;;4.08;100.00;101344.16;5071794;28;20179;-74
2022/02/11 13:02:24;;;;;;;1.13;1.03;;;;;;;4.01;100.00;101370.53;5071513;28;20178;-74
2022/02/11 13:05:01;;;;;;;1.87;1.77;;;;;;;3.87;100.00;101371.91;5071360;28;20182;-74
2022/02/11 13:07:27;;;;;;;1.97;1.03;;;;;;;3.80;100.00;101387.47;5071368;28;20174;-74
2022/02/11 13:09:52;;;;;;;3.03;1.93;;;;;;;3.76;100.00;101389.84;5070707;28;20267;-74
2022/02/11 13:12:18;;;;;;;3.03;2.20;;;;;;;3.72;100.00;101410.28;5070999;28;20269;-75
2022/02/11 13:14:44;;;;;;;2.40;1.87;;;;;;;3.71;100.00;101402.44;5070796;28;20178;-75
2022/02/11 13:17:09;;;;;;;2.40;2.20;;;;;;;3.70;100.00;101417.00;5069930;28;20210;-75
2022/02/11 13:19:34;;;;;;;1.33;1.23;;;;;;;3.67;100.00;101431.00;5071262;28;20182;-75
2022/02/11 13:22:00;;;;;;;0.90;0.90;;;;;;;3.57;100.00;101437.84;5069759;28;20216;-75
2022/02/11 13:24:25;;;;;;;2.27;2.07;;;;;;;3.58;100.00;101453.00;5071484;28;20204;-74
2022/02/11 13:26:51;;;;;;;3.33;1.87;;;;;;;3.57;100.00;101453.25;5070781;28;20193;-74
2022/02/11 13:29:16;;;;;;;1.60;1.50;;;;;;;3.61;100.00;101462.50;5071243;28;20216;-74
2022/02/11 13:31:47;;;;;;;0.73;0.73;;;;;;;3.62;100.00;101466.88;5071046;28;20204;-75
2022/02/11 13:34:12;;;;;;;1.03;0.93;;;;;;;3.69;100.00;101488.34;5070977;28;20190;-76
2022/02/11 13:36:37;;;;;;;1.17;1.00;;;;;;;3.70;100.00;101504.31;5071065;28;20206;-75
2022/02/11 13:39:03;;;;;;;1.23;1.13;;;;;;;3.74;100.00;101494.66;5070725;28;20573;-75
2022/02/11 13:41:38;;;;;;;1.30;1.20;;;;;;;3.75;100.00;101512.50;5070672;28;20182;-74
2022/02/11 13:44:09;;;;;;;1.20;1.10;;;;;;;3.76;100.00;101527.69;5070801;28;20257;-75
2022/02/11 13:46:37;;;;;;;2.40;1.87;;;;;;;3.71;99.88;101530.25;5070610;28;20269;-75
2022/02/11 13:49:09;;;;;;;0.30;0.30;;;;;;;3.79;99.81;101537.19;5070579;28;20181;-75
2022/02/11 13:51:36;;;;;;;0.90;0.80;;;;;;;3.80;100.00;101544.25;5071081;28;20261;-74
2022/02/11 13:54:11;;;;;;;1.33;1.23;;;;;;;3.78;99.68;101546.38;5070695;28;20221;-73
2022/02/11 13:56:39;;;;;;;2.13;1.50;;;;;;;3.81;99.55;101554.81;5070508;28;20639;-75
2022/02/11 13:59:08;;;;;;;1.30;1.20;;;;;;;3.81;98.84;101554.00;5070648;28;20178;-74
2022/02/11 14:01:45;;;;;;;1.67;1.37;;;;;;;3.87;98.89;101582.75;5070488;28;20202;-74
2022/02/11 14:04:14;;;;;;;1.77;1.30;;;;;;;3.81;99.47;101578.31;5066107;28;20194;-75
2022/02/11 14:06:56;;;;;;;0.67;0.67;;;;;;;3.80;98.97;101585.59;5070589;28;20702;-75
2022/02/11 14:09:35;;;;;;;1.00;1.00;;;;;;;3.83;98.42;101601.34;5070928;28;20564;-76
2022/02/11 14:12:01;;;;;;;0.87;0.70;;;;;;;3.82;99.50;101596.19;5050981;28;20623;-74
2022/02/11 14:14:26;;;;;;;5.53;1.53;;;;;;;3.82;99.96;101620.50;5051131;28;20186;-71
2022/02/11 14:16:52;;;;;;;1.80;1.70;;;;;;;3.80;100.00;101622.63;5049349;28;20199;-72
2022/02/11 14:19:24;;;;;;;1.60;1.50;;;;;;;3.75;99.70;101633.31;5050483;28;20186;-72
2022/02/11 14:21:51;;;;;;;1.23;1.13;;;;;;;3.81;99.53;101641.31;5050767;28;20289;-74
2022/02/11 14:24:16;;;;;;;3.73;1.30;;;;;;;3.84;100.00;101651.63;5051013;28;20535;-73
2022/02/11 14:26:42;;;;;;;1.20;1.00;;;;;;;3.79;99.46;101650.72;5050361;28;20187;-73
2022/02/11 14:29:08;;;;;;;0.90;0.90;;;;;;;3.79;99.91;101659.63;5050754;28;20635;-74
2022/02/11 14:31:34;;;;;;;4.50;3.50;;;;;;;3.79;99.73;101667.75;5069470;28;20170;-74
2022/02/11 14:33:59;;;;;;;6.43;0.60;;;;;;;3.82;100.00;101682.66;5070828;28;20207;-73
2022/02/11 14:36:24;;;;;;;3.47;2.27;;;;;;;3.81;100.00;101678.31;5070506;28;20209;-74
2022/02/11 14:38:50;;;;;;;2.10;1.77;;;;;;;3.83;100.00;101678.91;5070705;28;20190;-74
2022/02/11 14:43:59;;;;;;;1.20;0.90;;;;;;;3.86;100.00;101686.53;5070729;28;20178;-74
2022/02/11 14:46:25;;;;;;;1.83;1.60;;;;;;;3.87;100.00;101688.19;5069008;28;20178;-74
2022/02/11 14:48:50;;;;;;;3.83;2.70;;;;;;;3.87;100.00;101699.00;5070605;28;20424;-74
2022/02/11 14:51:15;;;;;;;2.67;2.20;;;;;;;3.93;100.00;101713.47;5070498;28;20204;-74
2022/02/11 14:53:41;;;;;;;0.73;0.73;;;;;;;3.93;100.00;101722.41;5070557;28;20175;-74
2022/02/11 14:56:07;;;;;;;3.20;0.77;;;;;;;3.72;100.00;101725.66;5070344;28;20288;-74
2022/02/11 14:58:33;;;;;;;1.43;1.33;;;;;;;3.58;100.00;101738.56;5069118;28;20312;-76
2022/02/11 15:00:58;;;;;;;1.07;0.87;;;;;;;3.46;100.00;101741.25;5070236;28;20250;-74
2022/02/11 15:03:25;;;;;;;1.37;1.03;;;;;;;3.40;100.00;101739.50;5069951;28;20761;-74
2022/02/11 15:05:50;;;;;;;0.40;0.40;;;;;;;3.40;100.00;101761.09;5069546;28;20558;-73
2022/02/11 15:08:16;;;;;;;2.20;0.70;;;;;;;3.42;100.00;101777.06;5069866;28;20175;-74
2022/02/11 15:10:41;;;;;;;1.20;1.03;;;;;;;3.45;100.00;101777.44;5069888;28;20536;-74
2022/02/11 15:13:09;;;;;;;0.33;0.33;;;;;;;3.48;100.00;101759.97;5069794;28;20171;-74
2022/02/11 15:15:39;;;;;;;0.60;0.40;;;;;;;3.45;100.00;101788.25;5069615;28;20174;-74
2022/02/11 15:18:08;;;;;;;0.63;0.20;;;;;;;3.46;100.00;101789.88;5069992;28;20202;-74
2022/02/11 15:20:41;;;;;;;18.33;1.20;;;;;;;3.48;100.00;101797.78;5069770;28;20167;-74